Time;durP1;ratioP1;P1;durP2;ratioP2;P2;SDS_P1;SDS_P2;PMS_P1;PMS_P2;Temp;Humidity;BMP_temperature;BMP_pressure;BME280_temperature;BME280_humidity;BME280_pressure;Samples;Min_cycle;Max_cycle;Signal;HPM_P1;HPM_P2
2024/02/13 00:02:01;;;;;;;2.70;1.37;;;9.20;99.90;;;;;;4882272;29;20802;-48
2024/02/13 00:04:30;;;;;;;3.00;1.67;;;9.20;99.90;;;;;;4880314;28;20466;-46
2024/02/13 00:06:59;;;;;;;2.50;1.70;;;9.20;99.90;;;;;;4884188;29;20439;-46
2024/02/13 00:09:29;;;;;;;4.53;1.60;;;9.20;99.90;;;;;;4886114;28;20498;-46
2024/02/13 00:11:58;;;;;;;2.20;1.17;;;9.20;99.90;;;;;;4883418;29;20443;-47
2024/02/13 00:14:26;;;;;;;2.40;1.90;;;9.20;99.90;;;;;;4887635;28;20526;-47
2024/02/13 00:16:58;;;;;;;2.23;1.47;;;9.20;99.90;;;;;;4882371;29;20443;-48
2024/02/13 00:19:27;;;;;;;2.00;1.33;;;9.20;99.90;;;;;;4882468;29;20591;-48
2024/02/13 00:21:55;;;;;;;2.97;1.30;;;9.20;99.90;;;;;;4883800;29;20565;-50
2024/02/13 00:24:25;;;;;;;1.97;1.73;;;9.20;99.90;;;;;;4882480;29;20565;-48
2024/02/13 00:26:54;;;;;;;2.00;1.50;;;9.20;99.90;;;;;;4883930;29;20671;-48
2024/02/13 00:29:22;;;;;;;1.90;1.50;;;9.20;99.90;;;;;;4883912;29;20482;-49
2024/02/13 00:31:52;;;;;;;3.57;2.17;;;9.10;99.90;;;;;;4877983;29;20458;-49
2024/02/13 00:34:22;;;;;;;2.03;1.20;;;9.10;99.90;;;;;;4885966;29;20470;-48
2024/02/13 00:36:51;;;;;;;2.60;1.67;;;9.10;99.90;;;;;;4882173;29;20439;-47
2024/02/13 00:39:20;;;;;;;1.67;1.30;;;9.10;99.90;;;;;;4885570;29;20550;-47
2024/02/13 00:41:51;;;;;;;1.73;1.23;;;9.10;99.90;;;;;;4881157;29;20557;-48
2024/02/13 00:44:19;;;;;;;2.60;1.50;;;9.10;99.90;;;;;;4870621;28;20477;-47
2024/02/13 00:46:50;;;;;;;5.83;2.00;;;9.10;99.90;;;;;;4880762;29;20776;-47
2024/02/13 00:49:18;;;;;;;1.97;1.33;;;9.10;99.90;;;;;;4890645;29;20462;-46
2024/02/13 00:51:47;;;;;;;1.90;1.47;;;9.10;99.90;;;;;;4891854;29;20842;-49
2024/02/13 00:54:21;;;;;;;2.00;1.63;;;9.10;99.90;;;;;;4884121;28;20482;-48
2024/02/13 00:56:52;;;;;;;2.80;1.53;;;9.10;99.90;;;;;;4916516;29;20462;-47
2024/02/13 00:59:25;;;;;;;1.90;1.13;;;9.10;99.90;;;;;;4889722;28;20469;-48
2024/02/13 01:01:54;;;;;;;1.80;1.10;;;9.10;99.90;;;;;;4888305;29;20919;-47
2024/02/13 01:04:23;;;;;;;2.77;1.90;;;9.10;99.90;;;;;;4891014;28;20828;-48
2024/02/13 01:06:52;;;;;;;2.60;2.00;;;9.10;99.90;;;;;;4889057;29;20442;-45
2024/02/13 01:09:21;;;;;;;1.83;1.30;;;9.10;99.90;;;;;;4891025;29;21015;-49
2024/02/13 01:11:51;;;;;;;4.17;1.90;;;9.10;99.90;;;;;;4884161;29;20938;-48
2024/02/13 01:14:21;;;;;;;3.23;1.40;;;9.10;99.90;;;;;;4882254;28;21019;-48
2024/02/13 01:16:50;;;;;;;1.63;1.37;;;9.10;99.90;;;;;;4883245;29;20456;-51
2024/02/13 01:19:19;;;;;;;1.87;1.30;;;9.10;99.90;;;;;;4889768;28;20539;-47
2024/02/13 01:21:48;;;;;;;2.03;1.50;;;9.10;99.90;;;;;;4890609;29;20833;-51
2024/02/13 01:24:19;;;;;;;2.30;1.50;;;9.10;99.90;;;;;;4887007;29;20476;-47
2024/02/13 01:26:47;;;;;;;2.60;1.27;;;9.10;99.90;;;;;;4884168;29;20897;-51
2024/02/13 01:29:18;;;;;;;1.93;1.50;;;9.10;99.90;;;;;;4890227;29;20563;-49
2024/02/13 01:31:47;;;;;;;2.90;1.60;;;9.10;99.90;;;;;;4886176;29;20778;-50
2024/02/13 01:34:16;;;;;;;2.13;1.50;;;9.00;99.90;;;;;;4890283;29;20845;-48
2024/02/13 01:36:44;;;;;;;2.47;1.33;;;9.00;99.90;;;;;;4886473;29;20450;-49
2024/02/13 01:39:12;;;;;;;2.10;1.50;;;9.00;99.90;;;;;;4886302;29;21023;-48
2024/02/13 01:41:41;;;;;;;1.73;1.00;;;9.00;99.90;;;;;;4888326;29;21060;-47
2024/02/13 01:44:11;;;;;;;2.13;1.30;;;9.00;99.90;;;;;;4888139;29;20482;-47
2024/02/13 01:46:41;;;;;;;2.37;1.83;;;9.00;99.90;;;;;;4887545;29;20922;-48
2024/02/13 01:49:11;;;;;;;2.60;1.67;;;9.00;99.90;;;;;;4889816;29;20470;-51
2024/02/13 01:51:41;;;;;;;2.00;1.30;;;9.00;99.90;;;;;;4890851;29;20872;-49
2024/02/13 01:54:11;;;;;;;1.90;1.23;;;9.00;99.90;;;;;;4889639;29;20466;-48
2024/02/13 01:56:41;;;;;;;2.20;1.70;;;9.00;99.90;;;;;;4881259;29;20458;-48
2024/02/13 01:59:11;;;;;;;2.20;1.10;;;9.00;99.90;;;;;;4887802;29;20463;-46
2024/02/13 02:01:42;;;;;;;2.37;1.30;;;9.00;99.90;;;;;;4886989;29;20505;-46
2024/02/13 02:04:12;;;;;;;1.53;0.90;;;9.00;99.90;;;;;;4889095;28;20470;-47
2024/02/13 02:06:42;;;;;;;1.93;1.30;;;9.00;99.90;;;;;;4888874;29;20462;-47
2024/02/13 02:09:11;;;;;;;2.03;1.63;;;9.00;99.90;;;;;;4889856;28;20557;-46
2024/02/13 02:11:39;;;;;;;2.80;1.80;;;9.00;99.90;;;;;;4885011;29;20442;-47
2024/02/13 02:14:08;;;;;;;5.80;1.40;;;9.00;99.90;;;;;;4888734;29;20489;-47
2024/02/13 02:16:36;;;;;;;2.00;1.03;;;9.00;99.90;;;;;;4879749;29;21773;-48
2024/02/13 02:19:07;;;;;;;1.90;1.40;;;9.00;99.90;;;;;;4881194;28;20482;-48
2024/02/13 02:21:35;;;;;;;2.67;1.50;;;9.00;99.90;;;;;;4887244;29;20461;-47
2024/02/13 02:24:05;;;;;;;2.90;1.97;;;9.00;99.90;;;;;;4887186;29;20561;-48
2024/02/13 02:26:38;;;;;;;1.60;1.27;;;9.00;99.90;;;;;;4883225;29;20497;-48
2024/02/13 02:29:06;;;;;;;2.20;1.47;;;9.00;99.90;;;;;;4887209;29;20839;-47
2024/02/13 02:31:34;;;;;;;2.13;1.27;;;9.00;99.90;;;;;;4886511;29;20482;-48
2024/02/13 02:34:04;;;;;;;1.73;1.50;;;8.90;99.90;;;;;;4877392;28;20510;-48
2024/02/13 02:36:32;;;;;;;2.70;1.50;;;8.90;99.90;;;;;;4887647;29;20461;-47
2024/02/13 02:39:04;;;;;;;3.00;1.80;;;8.90;99.90;;;;;;4884226;28;21039;-47
2024/02/13 02:41:33;;;;;;;2.50;1.87;;;8.90;99.90;;;;;;4887793;29;20481;-48
2024/02/13 02:44:08;;;;;;;2.20;1.47;;;8.90;99.90;;;;;;4889778;29;20790;-47
2024/02/13 02:46:37;;;;;;;2.03;1.30;;;8.90;99.90;;;;;;4885754;29;20449;-48
2024/02/13 02:49:06;;;;;;;3.33;2.00;;;8.90;99.90;;;;;;4888614;28;20473;-48
2024/02/13 02:51:37;;;;;;;1.93;1.20;;;8.90;99.90;;;;;;4888772;29;20431;-47
2024/02/13 02:54:06;;;;;;;2.47;1.50;;;8.90;99.90;;;;;;4887475;28;20557;-47
2024/02/13 02:56:39;;;;;;;2.37;1.07;;;8.90;99.90;;;;;;4881718;29;20456;-47
2024/02/13 02:59:08;;;;;;;2.70;1.33;;;8.90;99.90;;;;;;4889487;28;20475;-48
2024/02/13 03:01:38;;;;;;;2.03;1.50;;;8.90;99.90;;;;;;4888154;29;20825;-48
2024/02/13 03:04:07;;;;;;;2.20;1.70;;;8.90;99.90;;;;;;4890426;29;20512;-48
2024/02/13 03:06:40;;;;;;;2.70;1.87;;;8.90;99.90;;;;;;4894701;29;20453;-49
2024/02/13 03:09:10;;;;;;;2.70;2.20;;;8.90;99.90;;;;;;4891759;29;20474;-47
2024/02/13 03:11:38;;;;;;;2.60;1.90;;;8.90;99.90;;;;;;4892252;29;20467;-47
2024/02/13 03:14:14;;;;;;;3.40;1.80;;;8.90;99.90;;;;;;4891507;29;20481;-47
2024/02/13 03:16:45;;;;;;;2.03;1.40;;;8.90;99.90;;;;;;4889706;29;20446;-47
2024/02/13 03:19:13;;;;;;;2.23;1.80;;;8.90;99.90;;;;;;4890459;29;20485;-48
2024/02/13 03:21:42;;;;;;;4.90;2.47;;;8.90;99.90;;;;;;4892711;29;20446;-46
2024/02/13 03:24:11;;;;;;;2.50;2.00;;;8.90;99.90;;;;;;4886663;29;20482;-48
2024/02/13 03:26:40;;;;;;;2.30;1.40;;;8.90;99.90;;;;;;4892721;29;20434;-47
2024/02/13 03:29:08;;;;;;;5.10;1.80;;;8.80;99.90;;;;;;4893038;29;20480;-48
2024/02/13 03:31:38;;;;;;;2.90;1.70;;;8.80;99.90;;;;;;4891928;29;20948;-47
2024/02/13 03:34:06;;;;;;;4.47;1.50;;;8.90;99.90;;;;;;4891821;29;20475;-48
2024/02/13 03:36:34;;;;;;;2.40;1.97;;;8.80;99.90;;;;;;4891911;29;21090;-46
2024/02/13 03:39:06;;;;;;;2.20;1.40;;;8.80;99.90;;;;;;4969980;23;20490;-46
2024/02/13 03:41:41;;;;;;;1.80;1.47;;;8.80;99.90;;;;;;4965854;28;20450;-47
2024/02/13 03:44:11;;;;;;;4.30;1.40;;;8.80;99.90;;;;;;4962006;28;20523;-48
2024/02/13 03:46:42;;;;;;;1.87;1.40;;;8.80;99.90;;;;;;4956758;28;20447;-47
2024/02/13 03:49:11;;;;;;;2.20;1.50;;;8.80;99.90;;;;;;4959521;28;21036;-48
2024/02/13 03:51:42;;;;;;;1.87;1.30;;;8.80;99.90;;;;;;4960454;28;20789;-47
2024/02/13 03:54:11;;;;;;;2.77;1.43;;;8.80;99.90;;;;;;4959403;28;20467;-46
2024/02/13 03:56:43;;;;;;;3.00;1.53;;;8.80;99.90;;;;;;4949279;28;20523;-46
2024/02/13 03:59:13;;;;;;;2.70;1.27;;;8.80;99.90;;;;;;4959309;28;20555;-48
2024/02/13 04:01:46;;;;;;;1.90;1.10;;;8.80;99.90;;;;;;4950237;28;20446;-46
2024/02/13 04:04:15;;;;;;;2.17;1.20;;;8.80;99.90;;;;;;4940275;28;20851;-46
2024/02/13 04:06:45;;;;;;;2.07;1.37;;;8.80;99.90;;;;;;4945789;28;20452;-46
2024/02/13 04:09:15;;;;;;;1.90;1.50;;;8.80;99.90;;;;;;4939554;28;20471;-46
2024/02/13 04:11:45;;;;;;;2.57;1.20;;;8.80;99.90;;;;;;4951430;28;20439;-46
2024/02/13 04:14:13;;;;;;;1.70;1.20;;;8.80;99.90;;;;;;4945369;28;20562;-46
2024/02/13 04:16:42;;;;;;;1.70;1.30;;;8.80;99.90;;;;;;4947578;28;20476;-46
2024/02/13 04:19:14;;;;;;;1.87;1.50;;;8.80;99.90;;;;;;4947334;28;20858;-46
2024/02/13 04:21:42;;;;;;;1.77;0.90;;;8.80;99.90;;;;;;4956393;28;20798;-46
2024/02/13 04:24:10;;;;;;;2.47;1.50;;;8.80;99.90;;;;;;4948568;28;20479;-46
2024/02/13 04:26:39;;;;;;;2.70;2.10;;;8.80;99.90;;;;;;4945761;28;20451;-46
2024/02/13 04:29:09;;;;;;;1.70;1.20;;;8.80;99.90;;;;;;4956515;28;20463;-46
2024/02/13 04:31:39;;;;;;;1.80;1.20;;;8.80;99.90;;;;;;4943091;28;20442;-46
2024/02/13 04:34:07;;;;;;;2.83;1.20;;;8.80;99.90;;;;;;4955637;28;20522;-46
2024/02/13 04:36:39;;;;;;;2.27;1.20;;;8.80;99.90;;;;;;4952128;28;20539;-46
2024/02/13 04:39:08;;;;;;;1.60;1.30;;;8.70;99.90;;;;;;4949177;28;20494;-46
2024/02/13 04:41:36;;;;;;;1.87;1.40;;;8.70;99.90;;;;;;4953663;28;20436;-46
2024/02/13 04:44:07;;;;;;;3.20;1.40;;;8.70;99.90;;;;;;4954597;28;20604;-46
2024/02/13 04:46:35;;;;;;;2.93;1.33;;;8.70;99.90;;;;;;4951958;28;20482;-46
2024/02/13 04:49:05;;;;;;;2.40;1.07;;;8.70;99.90;;;;;;4950837;28;20465;-46
2024/02/13 04:51:33;;;;;;;2.90;1.40;;;8.70;99.90;;;;;;4956436;28;20428;-46
2024/02/13 04:54:04;;;;;;;2.00;1.30;;;8.70;99.90;;;;;;4947627;28;21837;-46
2024/02/13 04:56:33;;;;;;;1.40;0.97;;;8.70;99.90;;;;;;4950131;28;20467;-46
2024/02/13 04:59:02;;;;;;;2.60;1.23;;;8.70;99.90;;;;;;4956112;28;20466;-46
2024/02/13 05:01:31;;;;;;;2.50;1.30;;;8.70;99.90;;;;;;4947838;28;20435;-46
2024/02/13 05:09:33;;;;;;;1.60;1.03;;;8.70;99.90;;;;;;4952741;28;20478;-46
2024/02/13 05:12:01;;;;;;;3.37;1.40;;;8.70;99.90;;;;;;4950547;28;20441;-46
2024/02/13 05:14:30;;;;;;;3.97;1.47;;;8.70;99.90;;;;;;4956189;28;20467;-46
2024/02/13 05:17:02;;;;;;;2.40;1.37;;;8.70;99.90;;;;;;4948563;28;20547;-46
2024/02/13 05:19:31;;;;;;;1.93;1.13;;;8.70;99.90;;;;;;4953035;28;20518;-46
2024/02/13 05:21:59;;;;;;;2.07;1.27;;;8.70;99.90;;;;;;4944335;28;20861;-46
2024/02/13 05:24:27;;;;;;;1.20;0.70;;;8.70;99.90;;;;;;4954245;28;20826;-46
2024/02/13 05:26:57;;;;;;;2.03;1.60;;;8.60;99.90;;;;;;4950071;28;20543;-47
2024/02/13 05:29:28;;;;;;;1.80;1.10;;;8.60;99.90;;;;;;4954291;28;20466;-46
2024/02/13 05:31:59;;;;;;;1.90;1.10;;;8.60;99.90;;;;;;4940749;28;20452;-46
2024/02/13 05:34:29;;;;;;;1.83;1.27;;;8.60;99.90;;;;;;4943498;28;20474;-46
2024/02/13 05:37:01;;;;;;;1.67;1.00;;;8.60;99.90;;;;;;4949766;28;20449;-46
2024/02/13 05:39:30;;;;;;;2.40;1.13;;;8.60;99.90;;;;;;4948876;28;20467;-46
2024/02/13 05:42:02;;;;;;;2.30;0.97;;;8.60;99.90;;;;;;4950770;28;20467;-46
2024/02/13 05:44:30;;;;;;;1.77;1.10;;;8.60;99.90;;;;;;4941650;28;20476;-46
2024/02/13 05:47:02;;;;;;;1.70;1.03;;;8.60;99.90;;;;;;4950560;28;20972;-46
2024/02/13 05:49:30;;;;;;;2.50;0.90;;;8.60;99.90;;;;;;4952968;28;20566;-46
2024/02/13 05:52:02;;;;;;;2.50;1.10;;;8.60;99.90;;;;;;4956246;28;20431;-46
2024/02/13 05:54:30;;;;;;;1.67;1.10;;;8.60;99.90;;;;;;4946895;28;20602;-47
2024/02/13 05:57:00;;;;;;;2.40;1.38;;;8.60;99.90;;;;;;4942870;28;20810;-46
2024/02/13 05:59:31;;;;;;;2.33;1.27;;;8.60;99.90;;;;;;4951567;28;20695;-46
2024/02/13 06:02:00;;;;;;;1.93;1.10;;;8.60;99.90;;;;;;4948630;28;20540;-46
2024/02/13 06:04:28;;;;;;;1.60;1.00;;;8.60;99.90;;;;;;4953830;28;20504;-46
2024/02/13 06:06:56;;;;;;;2.80;1.40;;;8.50;99.90;;;;;;4949217;28;20434;-46
2024/02/13 06:09:28;;;;;;;1.40;1.10;;;8.50;99.90;;;;;;4947506;28;20476;-46
2024/02/13 06:11:56;;;;;;;2.90;1.40;;;8.50;99.90;;;;;;4944551;28;20440;-46
2024/02/13 06:14:26;;;;;;;2.27;1.50;;;8.50;99.90;;;;;;4948272;28;20468;-46
2024/02/13 06:16:56;;;;;;;2.30;1.20;;;8.50;99.90;;;;;;4948173;28;20932;-46
2024/02/13 06:19:24;;;;;;;2.90;1.47;;;8.50;99.90;;;;;;4953937;28;20474;-46
2024/02/13 06:21:53;;;;;;;2.30;1.20;;;8.50;99.90;;;;;;4947236;28;20436;-46
2024/02/13 06:24:21;;;;;;;2.03;1.33;;;8.50;99.90;;;;;;4950348;28;20515;-46
2024/02/13 06:26:49;;;;;;;1.73;1.10;;;8.50;99.90;;;;;;4940821;28;20519;-46
2024/02/13 06:29:19;;;;;;;1.93;1.30;;;8.50;99.90;;;;;;4951474;28;20842;-46
2024/02/13 06:31:48;;;;;;;1.60;1.00;;;8.50;99.90;;;;;;4945050;28;20442;-46
2024/02/13 06:34:19;;;;;;;1.90;1.17;;;8.50;99.90;;;;;;4947019;28;20562;-46
2024/02/13 06:36:47;;;;;;;2.40;1.10;;;8.50;99.90;;;;;;4949599;28;20423;-46
2024/02/13 06:39:20;;;;;;;2.60;1.30;;;8.50;99.90;;;;;;4937861;28;20849;-45
2024/02/13 06:41:49;;;;;;;1.80;1.40;;;8.50;99.90;;;;;;4945845;28;20439;-44
2024/02/13 06:44:22;;;;;;;2.27;1.10;;;8.50;99.90;;;;;;4952407;28;20489;-44
2024/02/13 06:46:51;;;;;;;1.57;1.10;;;8.40;99.90;;;;;;4945169;28;20952;-45
2024/02/13 06:49:20;;;;;;;4.73;1.27;;;8.40;99.90;;;;;;4952682;28;20522;-46
2024/02/13 06:51:48;;;;;;;2.07;1.30;;;8.40;99.90;;;;;;4953771;28;20427;-45
2024/02/13 06:54:19;;;;;;;2.67;1.40;;;8.40;99.90;;;;;;4951543;28;20997;-45
2024/02/13 06:56:47;;;;;;;7.10;1.30;;;8.40;99.90;;;;;;4945393;28;20938;-46
2024/02/13 06:59:16;;;;;;;2.97;1.20;;;8.40;99.90;;;;;;4952610;28;20307;-46
2024/02/13 07:01:44;;;;;;;2.70;1.20;;;8.40;99.90;;;;;;4950075;28;20813;-46
2024/02/13 07:04:14;;;;;;;2.30;1.30;;;8.40;99.90;;;;;;4952743;28;20826;-46
2024/02/13 07:06:43;;;;;;;2.80;1.50;;;8.40;99.90;;;;;;4955711;28;20431;-45
2024/02/13 07:09:30;;;;;;;2.53;1.83;;;8.40;99.90;;;;;;4948546;28;20466;-46
2024/02/13 07:11:59;;;;;;;2.77;1.40;;;8.40;99.90;;;;;;4948099;28;20184;-46
2024/02/13 07:14:29;;;;;;;3.20;1.67;;;8.40;99.90;;;;;;4949207;28;20485;-46
2024/02/13 07:16:57;;;;;;;2.50;0.90;;;8.40;99.90;;;;;;4947562;28;20480;-45
2024/02/13 07:19:28;;;;;;;1.57;1.10;;;8.40;99.90;;;;;;4951874;28;20475;-46
2024/02/13 07:21:57;;;;;;;1.70;1.10;;;8.40;99.90;;;;;;4951050;28;20532;-46
2024/02/13 07:24:25;;;;;;;3.00;1.40;;;8.40;99.90;;;;;;4944808;28;20830;-46
2024/02/13 07:26:53;;;;;;;1.85;1.27;;;8.40;99.90;;;;;;4948389;28;20445;-45
2024/02/13 07:29:21;;;;;;;1.93;1.20;;;8.40;99.90;;;;;;4945738;28;20311;-46
2024/02/13 07:31:50;;;;;;;1.67;1.00;;;8.40;99.90;;;;;;4946125;28;21060;-46
2024/02/13 07:34:20;;;;;;;1.70;0.97;;;8.40;99.90;;;;;;4950597;28;20484;-46
2024/02/13 07:36:50;;;;;;;1.70;1.20;;;8.40;99.90;;;;;;4951825;28;20439;-46
2024/02/13 07:39:21;;;;;;;3.53;1.40;;;8.40;99.90;;;;;;4950537;28;20481;-45
2024/02/13 07:41:49;;;;;;;1.90;0.90;;;8.40;99.90;;;;;;4946152;28;20916;-46
2024/02/13 07:44:18;;;;;;;2.80;1.30;;;8.40;99.90;;;;;;4945103;28;20518;-46
2024/02/13 07:46:46;;;;;;;2.13;1.40;;;8.40;99.90;;;;;;4948859;28;20946;-46
2024/02/13 07:49:18;;;;;;;1.60;0.90;;;8.40;99.90;;;;;;4945522;28;20597;-46
2024/02/13 07:51:46;;;;;;;3.30;0.83;;;8.40;99.90;;;;;;4953643;28;20431;-46
2024/02/13 07:54:16;;;;;;;1.70;1.00;;;8.30;99.90;;;;;;4941400;28;20955;-46
2024/02/13 07:56:46;;;;;;;2.60;1.15;;;8.30;99.90;;;;;;4952615;28;20438;-48
2024/02/13 07:59:15;;;;;;;1.85;0.90;;;8.30;99.90;;;;;;4942708;28;20227;-47
2024/02/13 08:01:44;;;;;;;2.37;1.10;;;8.30;99.90;;;;;;4952619;28;21304;-48
2024/02/13 08:04:14;;;;;;;2.27;1.20;;;8.30;99.90;;;;;;4947585;28;20470;-48
2024/02/13 08:06:43;;;;;;;2.07;1.13;;;8.30;99.90;;;;;;4954656;28;20442;-47
2024/02/13 08:09:13;;;;;;;4.95;1.33;;;8.30;99.90;;;;;;4954395;28;20471;-49
2024/02/13 08:11:43;;;;;;;2.42;1.30;;;8.30;99.90;;;;;;4948121;28;20569;-48
2024/02/13 08:14:12;;;;;;;2.80;1.80;;;8.30;99.90;;;;;;4954044;28;20223;-48
2024/02/13 08:16:41;;;;;;;2.40;1.70;;;8.40;99.90;;;;;;4952158;28;20463;-46
2024/02/13 08:19:11;;;;;;;2.23;1.10;;;8.30;99.90;;;;;;4951741;28;20467;-46
2024/02/13 08:21:40;;;;;;;3.80;1.67;;;8.30;99.90;;;;;;4956644;28;20452;-45
2024/02/13 08:24:08;;;;;;;3.30;1.43;;;8.30;99.90;;;;;;4950424;28;21052;-46
2024/02/13 08:26:37;;;;;;;2.10;1.43;;;8.30;99.90;;;;;;4953979;28;20447;-46
2024/02/13 08:29:09;;;;;;;1.70;1.07;;;8.30;99.90;;;;;;4955891;28;20465;-46
2024/02/13 08:31:37;;;;;;;2.70;0.90;;;8.30;99.90;;;;;;4949925;28;21000;-46
2024/02/13 08:34:05;;;;;;;1.37;0.90;;;8.30;99.90;;;;;;4953320;28;20893;-47
2024/02/13 08:36:37;;;;;;;2.17;1.13;;;8.30;99.90;;;;;;4955033;28;20506;-48
2024/02/13 08:39:05;;;;;;;3.70;1.20;;;8.30;99.90;;;;;;4955264;28;20471;-46
2024/02/13 08:41:33;;;;;;;2.20;0.97;;;8.30;99.90;;;;;;4950519;28;20438;-50
2024/02/13 08:44:02;;;;;;;2.23;1.20;;;8.30;99.90;;;;;;4947932;28;20478;-47
2024/02/13 08:46:32;;;;;;;1.50;1.07;;;8.30;99.90;;;;;;4947077;28;20914;-47
2024/02/13 08:49:00;;;;;;;2.30;1.00;;;8.30;99.90;;;;;;4953398;28;20513;-47
2024/02/13 08:51:32;;;;;;;1.57;0.80;;;8.30;99.90;;;;;;4948386;28;20439;-47
2024/02/13 08:54:05;;;;;;;2.47;0.90;;;8.30;99.90;;;;;;4953880;28;20569;-47
2024/02/13 08:56:34;;;;;;;3.03;1.23;;;8.40;99.90;;;;;;4947262;28;20518;-48
2024/02/13 08:59:04;;;;;;;2.00;1.00;;;8.40;99.90;;;;;;4955335;28;20461;-46
2024/02/13 09:01:34;;;;;;;1.30;0.70;;;8.40;99.90;;;;;;4953425;28;20442;-50
2024/02/13 09:04:02;;;;;;;4.30;1.30;;;8.40;99.90;;;;;;4950244;28;20545;-47
2024/02/13 09:06:33;;;;;;;2.83;0.93;;;8.40;99.90;;;;;;4948440;28;20462;-47
2024/02/13 09:09:02;;;;;;;2.23;1.60;;;8.40;99.90;;;;;;4953244;28;20537;-46
2024/02/13 09:11:32;;;;;;;2.03;0.90;;;8.30;99.90;;;;;;4947957;28;20436;-47
2024/02/13 09:14:01;;;;;;;1.83;1.00;;;8.30;99.90;;;;;;4950949;28;20470;-47
2024/02/13 09:16:30;;;;;;;1.95;0.85;;;8.30;99.90;;;;;;4951820;28;20446;-47
2024/02/13 09:18:59;;;;;;;1.70;0.90;;;8.30;99.90;;;;;;4949961;28;20215;-49
2024/02/13 09:21:28;;;;;;;2.20;1.15;;;8.30;99.90;;;;;;4953939;28;20455;-47
2024/02/13 09:23:56;;;;;;;4.43;0.83;;;8.30;99.90;;;;;;4949840;28;20340;-48
2024/02/13 09:26:28;;;;;;;3.90;1.00;;;8.30;99.90;;;;;;4951525;28;20494;-45
2024/02/13 09:28:57;;;;;;;4.63;0.90;;;8.30;99.90;;;;;;4950909;28;21004;-46
2024/02/13 09:31:25;;;;;;;4.23;1.20;;;8.30;99.90;;;;;;4947724;28;20957;-48
2024/02/13 09:33:54;;;;;;;2.40;1.23;;;8.30;99.90;;;;;;4950316;28;20517;-47
2024/02/13 09:36:25;;;;;;;1.77;0.73;;;8.30;99.90;;;;;;4951744;28;20809;-46
2024/02/13 09:38:53;;;;;;;1.70;0.90;;;8.30;99.90;;;;;;4950536;28;20840;-46
2024/02/13 09:41:22;;;;;;;1.40;0.95;;;8.30;99.90;;;;;;4952764;28;20521;-46
2024/02/13 09:43:50;;;;;;;1.97;0.97;;;8.30;99.90;;;;;;4929964;28;20225;-46
2024/02/13 09:46:20;;;;;;;3.38;1.13;;;8.30;99.90;;;;;;4951011;28;20452;-45
2024/02/13 09:48:54;;;;;;;1.60;0.90;;;8.30;99.90;;;;;;4949085;28;20222;-46
2024/02/13 09:51:27;;;;;;;1.77;0.70;;;8.30;99.90;;;;;;4948562;28;20737;-46
2024/02/13 09:53:56;;;;;;;1.50;1.10;;;8.30;99.90;;;;;;4951182;28;20488;-48
2024/02/13 09:56:26;;;;;;;2.13;1.27;;;8.30;99.90;;;;;;4949922;28;20448;-48
2024/02/13 09:58:55;;;;;;;1.87;1.17;;;8.30;99.90;;;;;;4948681;28;20458;-50
2024/02/13 10:01:24;;;;;;;2.55;1.00;;;8.30;99.90;;;;;;4950645;28;20779;-48
2024/02/13 10:03:53;;;;;;;2.30;1.05;;;8.30;99.90;;;;;;4949165;28;20229;-47
2024/02/13 10:06:23;;;;;;;2.28;0.80;;;8.30;99.90;;;;;;4951958;28;20214;-47
2024/02/13 10:08:53;;;;;;;3.57;0.80;;;8.30;99.90;;;;;;4944917;28;20219;-48
2024/02/13 10:11:30;;;;;;;1.73;0.70;;;8.30;99.90;;;;;;5007760;23;20565;-48
2024/02/13 10:13:58;;;;;;;1.55;0.80;;;8.40;99.90;;;;;;4956392;28;20236;-47
2024/02/13 10:16:28;;;;;;;1.60;0.80;;;8.30;99.90;;;;;;4951952;28;20400;-46
2024/02/13 10:19:00;;;;;;;2.53;1.10;;;8.40;99.90;;;;;;4941825;28;20506;-44
2024/02/13 10:21:29;;;;;;;2.10;1.10;;;8.40;99.90;;;;;;4949595;28;20475;-45
2024/02/13 10:24:07;;;;;;;4.83;1.00;;;8.40;99.90;;;;;;4952442;28;20475;-46
2024/02/13 10:26:37;;;;;;;2.10;0.90;;;8.40;99.90;;;;;;4945529;28;20474;-46
2024/02/13 10:29:08;;;;;;;5.00;1.13;;;8.40;99.90;;;;;;4951485;28;20302;-46
2024/02/13 10:31:37;;;;;;;1.63;0.95;;;8.40;99.90;;;;;;4948442;28;20499;-46
2024/02/13 10:34:11;;;;;;;3.50;1.13;;;8.40;99.90;;;;;;4944145;28;20231;-49
2024/02/13 10:36:45;;;;;;;3.23;0.90;;;8.40;99.90;;;;;;4952803;28;20439;-48
2024/02/13 10:39:21;;;;;;;2.47;1.02;;;8.30;99.90;;;;;;4944959;28;20473;-48
2024/02/13 10:41:57;;;;;;;1.38;0.70;;;8.30;99.90;;;;;;4954172;28;20697;-46
2024/02/13 10:44:29;;;;;;;1.55;0.80;;;8.30;99.90;;;;;;4947690;28;20223;-50
2024/02/13 10:47:00;;;;;;;1.20;0.50;;;8.30;99.90;;;;;;4945031;28;20219;-47
2024/02/13 10:49:39;;;;;;;2.67;0.80;;;8.30;99.90;;;;;;4950209;28;20211;-46
2024/02/13 10:52:13;;;;;;;2.85;0.82;;;8.30;99.90;;;;;;4949399;28;20208;-46
2024/02/13 10:54:46;;;;;;;1.77;0.88;;;8.30;99.90;;;;;;4941999;28;20242;-46
2024/02/13 10:57:16;;;;;;;2.75;1.27;;;8.30;99.90;;;;;;4946225;28;20187;-46
2024/02/13 10:59:45;;;;;;;2.63;1.00;;;8.30;99.90;;;;;;4952496;28;20225;-46
2024/02/13 11:02:15;;;;;;;2.20;0.80;;;8.30;99.90;;;;;;4945110;28;20199;-47
2024/02/13 11:04:46;;;;;;;2.80;1.00;;;8.30;99.90;;;;;;4953445;28;21044;-47
2024/02/13 11:07:16;;;;;;;1.33;0.63;;;8.30;99.90;;;;;;4944499;28;20571;-47
2024/02/13 11:09:47;;;;;;;1.57;0.80;;;8.30;99.90;;;;;;4944068;28;20535;-48
2024/02/13 11:12:17;;;;;;;1.10;0.70;;;8.30;99.90;;;;;;4944785;28;20544;-48
2024/02/13 11:14:48;;;;;;;1.73;0.90;;;8.30;99.90;;;;;;4950031;28;20254;-47
2024/02/13 11:17:17;;;;;;;2.17;0.93;;;8.30;99.90;;;;;;4938665;28;20435;-48
2024/02/13 11:19:49;;;;;;;1.30;0.80;;;8.30;99.90;;;;;;4950442;28;20579;-48
2024/02/13 11:22:36;;;;;;;1.20;0.75;;;8.30;99.90;;;;;;4946649;28;20444;-48
2024/02/13 11:25:12;;;;;;;1.93;0.93;;;8.30;99.90;;;;;;4951989;28;20226;-48
2024/02/13 11:27:44;;;;;;;1.83;0.90;;;8.30;99.90;;;;;;4946520;28;20469;-47
2024/02/13 11:30:22;;;;;;;2.13;1.00;;;8.30;99.90;;;;;;4952112;28;20459;-48
2024/02/13 11:32:58;;;;;;;2.07;0.87;;;8.30;99.90;;;;;;4947687;28;20453;-48
2024/02/13 11:35:32;;;;;;;1.20;0.70;;;8.30;99.90;;;;;;4950680;28;20426;-49
2024/02/13 11:38:15;;;;;;;1.90;1.00;;;8.30;99.90;;;;;;4950889;28;20462;-47
2024/02/13 11:40:49;;;;;;;2.60;1.07;;;8.30;99.90;;;;;;4949488;28;20451;-47
2024/02/13 11:43:26;;;;;;;1.20;0.60;;;8.30;99.90;;;;;;4944421;28;20481;-48
2024/02/13 11:45:58;;;;;;;2.33;0.90;;;8.30;99.90;;;;;;4944463;28;20540;-46
2024/02/13 11:48:26;;;;;;;2.77;0.83;;;8.30;99.90;;;;;;4944882;28;20275;-50
2024/02/13 11:51:02;;;;;;;2.00;0.80;;;8.30;99.90;;;;;;4949203;28;20426;-50
2024/02/13 11:53:32;;;;;;;1.50;0.57;;;8.30;99.90;;;;;;4949876;28;20583;-48
2024/02/13 11:56:03;;;;;;;1.65;0.80;;;8.30;99.90;;;;;;4950720;28;20219;-48
2024/02/13 11:58:34;;;;;;;1.57;0.60;;;8.30;99.90;;;;;;4949049;28;20214;-46
2024/02/13 12:01:05;;;;;;;1.08;0.50;;;8.30;99.90;;;;;;4950813;28;20485;-48
2024/02/13 12:03:34;;;;;;;1.50;0.60;;;8.30;99.90;;;;;;4945079;28;20613;-51
2024/02/13 12:06:06;;;;;;;1.60;0.50;;;8.30;99.90;;;;;;4950774;28;20433;-46
2024/02/13 12:08:36;;;;;;;1.90;0.75;;;8.30;99.90;;;;;;4950770;28;20685;-47
2024/02/13 12:11:07;;;;;;;2.00;0.90;;;8.30;99.90;;;;;;5014101;23;20309;-46
2024/02/13 12:13:36;;;;;;;2.85;0.73;;;8.30;99.90;;;;;;4955832;28;20336;-45
2024/02/13 12:16:07;;;;;;;2.13;0.60;;;8.30;99.90;;;;;;4950396;28;20209;-45
2024/02/13 12:18:39;;;;;;;1.40;0.70;;;8.20;99.90;;;;;;4937593;28;21001;-45
2024/02/13 12:21:08;;;;;;;2.00;0.68;;;8.20;99.90;;;;;;4951186;28;20820;-47
2024/02/13 12:23:38;;;;;;;1.90;0.60;;;8.20;99.90;;;;;;4949239;28;20591;-46
2024/02/13 12:26:08;;;;;;;1.35;0.70;;;8.20;99.90;;;;;;4942506;28;20195;-47
2024/02/13 12:28:37;;;;;;;1.93;0.90;;;8.20;99.90;;;;;;4950916;28;20224;-45
2024/02/13 12:31:06;;;;;;;1.90;1.00;;;8.20;99.90;;;;;;4949532;28;20940;-47
2024/02/13 12:33:36;;;;;;;1.93;0.60;;;8.20;99.90;;;;;;4945198;28;20574;-46
2024/02/13 12:36:08;;;;;;;2.90;0.90;;;8.20;99.90;;;;;;4947707;28;20442;-45
2024/02/13 12:38:37;;;;;;;1.73;0.83;;;8.20;99.90;;;;;;4950336;28;20487;-46
2024/02/13 12:41:07;;;;;;;1.40;0.70;;;8.20;99.90;;;;;;4940731;28;20535;-46
2024/02/13 12:43:36;;;;;;;2.40;1.03;;;8.20;99.90;;;;;;4948600;28;20510;-44
2024/02/13 12:46:05;;;;;;;1.70;0.80;;;8.20;99.90;;;;;;4953554;28;20935;-45
2024/02/13 12:48:36;;;;;;;1.33;0.63;;;8.20;99.90;;;;;;4940208;28;20721;-46
2024/02/13 12:51:08;;;;;;;2.53;0.80;;;8.30;99.90;;;;;;4952783;28;20614;-46
2024/02/13 12:53:42;;;;;;;1.40;0.50;;;8.30;99.90;;;;;;4953312;28;20890;-45
2024/02/13 12:56:12;;;;;;;1.40;0.60;;;8.20;99.90;;;;;;4941305;28;20196;-47
2024/02/13 12:58:42;;;;;;;1.67;0.65;;;8.20;99.90;;;;;;4950980;28;20471;-45
2024/02/13 13:01:10;;;;;;;1.37;0.70;;;8.20;99.90;;;;;;4953733;28;20203;-45
2024/02/13 13:03:39;;;;;;;4.53;0.90;;;8.30;99.90;;;;;;4948481;28;20861;-46
2024/02/13 13:06:09;;;;;;;9.10;2.23;;;8.30;99.90;;;;;;4952271;28;20470;-47
2024/02/13 13:08:41;;;;;;;1.40;0.50;;;8.20;99.90;;;;;;4951741;28;20493;-48
2024/02/13 13:11:11;;;;;;;1.53;0.60;;;8.20;99.90;;;;;;4951563;28;20546;-47
2024/02/13 13:13:41;;;;;;;1.30;0.63;;;8.30;99.90;;;;;;4947262;28;21063;-47
2024/02/13 13:16:11;;;;;;;1.45;0.70;;;8.20;99.90;;;;;;4947228;28;20196;-46
2024/02/13 13:18:42;;;;;;;2.23;0.70;;;8.30;99.90;;;;;;4945656;28;20220;-47